createdAt,value
2018-07-20T00:00:51.696Z,24.5
2018-07-20T00:01:56.324Z,24.5
2018-07-20T00:03:01.255Z,24.5
2018-07-20T00:04:06.428Z,24.5
2018-07-20T00:05:11.904Z,24.5
2018-07-20T00:06:17.114Z,24.5
2018-07-20T00:07:22.813Z,24.5
2018-07-20T00:08:28.250Z,24.5
2018-07-20T00:09:33.656Z,24.5
2018-07-20T00:10:38.799Z,24.5
2018-07-20T00:11:44.255Z,24.5
2018-07-20T00:12:49.893Z,24.5
2018-07-20T00:13:55.320Z,24.5
2018-07-20T00:15:00.507Z,24.5
2018-07-20T00:16:05.440Z,24.5
2018-07-20T00:17:10.603Z,24.5
2018-07-20T00:18:15.827Z,24.5
2018-07-20T00:19:21.420Z,24.5
2018-07-20T00:20:26.282Z,24.5
2018-07-20T00:21:31.846Z,24.5
2018-07-20T00:22:37.322Z,24.5
2018-07-20T00:23:42.184Z,24.5
2018-07-20T00:24:47.637Z,24.5
2018-07-20T00:25:52.558Z,24.5
2018-07-20T00:26:57.714Z,24.5
2018-07-20T00:28:03.205Z,24.5
2018-07-20T00:29:07.848Z,24.5
2018-07-20T00:30:13.016Z,24.5
2018-07-20T00:31:18.043Z,24.5
2018-07-20T00:32:23.193Z,24.5
2018-07-20T00:33:29.001Z,24.5
2018-07-20T00:34:34.495Z,24.5
2018-07-20T00:35:39.923Z,24.5
2018-07-20T00:36:45.041Z,24.5
2018-07-20T00:37:50.270Z,24.5
2018-07-20T00:38:55.438Z,24.5
2018-07-20T00:40:01.412Z,24.5
2018-07-20T00:41:05.792Z,24.5
2018-07-20T00:42:11.230Z,24.5
2018-07-20T00:43:16.797Z,24.5
2018-07-20T00:44:22.027Z,24.5
2018-07-20T00:45:27.204Z,24.5
2018-07-20T00:46:32.355Z,24.5
2018-07-20T00:47:37.796Z,24.5
2018-07-20T00:48:42.743Z,24.5
2018-07-20T00:49:47.944Z,24.5
2018-07-20T00:50:53.123Z,24.5
2018-07-20T00:51:58.821Z,24.5
2018-07-20T00:53:04.021Z,24.5
2018-07-20T00:54:09.240Z,24.5
2018-07-20T00:55:14.743Z,24.5
2018-07-20T00:56:20.170Z,24.5
2018-07-20T00:57:24.489Z,24.5
2018-07-20T00:58:44.588Z,24.5
2018-07-20T00:59:50.030Z,24.5
2018-07-20T01:00:55.885Z,24.5
2018-07-20T01:02:01.376Z,24.5
2018-07-20T01:03:05.966Z,24.5
2018-07-20T01:04:11.669Z,24.5
2018-07-20T01:05:17.193Z,24.4
2018-07-20T01:06:22.367Z,24.5
2018-07-20T01:07:28.808Z,24.5
2018-07-20T01:08:34.275Z,24.4
2018-07-20T01:09:39.805Z,24.5
2018-07-20T01:10:44.748Z,24.4
2018-07-20T01:11:49.948Z,24.4
2018-07-20T01:12:55.581Z,24.4
2018-07-20T01:14:00.460Z,24.4
2018-07-20T01:15:05.341Z,24.5
2018-07-20T01:16:11.158Z,24.5
2018-07-20T01:17:16.532Z,24.5
2018-07-20T01:18:21.737Z,24.4
2018-07-20T01:19:27.131Z,24.5
2018-07-20T01:20:32.565Z,24.5
2018-07-20T01:21:37.962Z,24.5
2018-07-20T01:22:42.829Z,24.4
2018-07-20T01:23:48.008Z,24.5
2018-07-20T01:24:53.686Z,24.5
2018-07-20T01:25:59.135Z,24.5
2018-07-20T01:27:04.281Z,24.5
2018-07-20T01:28:09.712Z,24.5
2018-07-20T01:29:15.200Z,24.4
2018-07-20T01:30:20.628Z,24.4
2018-07-20T01:31:25.884Z,24.5
2018-07-20T01:32:31.333Z,24.4
2018-07-20T01:33:37.032Z,24.4
2018-07-20T01:34:42.463Z,24.4
2018-07-20T01:35:47.601Z,24.4
2018-07-20T01:36:53.000Z,24.5
2018-07-20T01:37:58.441Z,24.4
2018-07-20T01:39:03.718Z,24.4
2018-07-20T01:40:08.453Z,24.4
2018-07-20T01:41:13.973Z,24.4
2018-07-20T01:42:19.129Z,24.4
2018-07-20T01:43:39.506Z,24.4
2018-07-20T01:44:44.161Z,24.4
2018-07-20T01:45:49.336Z,24.4
2018-07-20T01:46:54.773Z,24.4
2018-07-20T01:48:00.222Z,24.4
2018-07-20T01:49:05.338Z,24.4
2018-07-20T01:50:10.217Z,24.4
2018-07-20T01:51:15.386Z,24.5
2018-07-20T01:52:20.815Z,24.4
2018-07-20T01:53:25.385Z,24.4
2018-07-20T01:54:31.515Z,24.5
2018-07-20T01:55:36.944Z,24.4
2018-07-20T01:56:42.412Z,24.5
2018-07-20T01:57:48.287Z,24.4
2018-07-20T01:58:53.735Z,24.5
2018-07-20T01:59:58.933Z,24.4
2018-07-20T02:01:04.792Z,24.4
2018-07-20T02:02:09.482Z,24.4
2018-07-20T02:03:14.641Z,24.4
2018-07-20T02:04:20.335Z,24.4
2018-07-20T02:05:25.263Z,24.4
2018-07-20T02:06:30.858Z,24.4
2018-07-20T02:07:36.134Z,24.4
2018-07-20T02:08:41.315Z,24.4
2018-07-20T02:09:46.599Z,24.4
2018-07-20T02:10:51.785Z,24.4
2018-07-20T02:11:57.278Z,24.4
2018-07-20T02:13:02.569Z,24.4
2018-07-20T02:14:07.754Z,24.4
2018-07-20T02:15:12.948Z,24.4
2018-07-20T02:16:18.726Z,24.4
2018-07-20T02:17:23.348Z,24.4
2018-07-20T02:18:28.350Z,24.4
2018-07-20T02:19:33.205Z,24.4
2018-07-20T02:20:38.441Z,24.4
2018-07-20T02:21:44.283Z,24.4
2018-07-20T02:22:49.438Z,24.4
2018-07-20T02:23:54.622Z,24.4
2018-07-20T02:24:59.888Z,24.4
2018-07-20T02:26:05.351Z,24.4
2018-07-20T02:27:10.576Z,24.4
2018-07-20T02:28:15.962Z,24.4
2018-07-20T02:29:20.846Z,24.4
2018-07-20T02:30:26.547Z,24.4
2018-07-20T02:31:32.140Z,24.4
2018-07-20T02:32:37.783Z,24.4
2018-07-20T02:33:42.635Z,24.4
2018-07-20T02:34:47.511Z,24.4
2018-07-20T02:35:52.471Z,24.4
2018-07-20T02:36:57.146Z,24.4
2018-07-20T02:38:02.606Z,24.4
2018-07-20T02:39:07.802Z,24.5
2018-07-20T02:40:13.206Z,24.4
2018-07-20T02:41:18.164Z,24.4
2018-07-20T02:42:23.319Z,24.4
2018-07-20T02:43:43.831Z,24.4
2018-07-20T02:44:49.261Z,24.4
2018-07-20T02:45:54.767Z,24.4
2018-07-20T02:47:00.277Z,24.4
2018-07-20T02:48:05.143Z,24.4
2018-07-20T02:49:10.275Z,24.4
2018-07-20T02:50:15.509Z,24.4
2018-07-20T02:51:20.673Z,24.4
2018-07-20T02:52:26.403Z,24.4
2018-07-20T02:53:31.881Z,24.4
2018-07-20T02:54:37.588Z,24.4
2018-07-20T02:55:43.228Z,24.4
2018-07-20T02:56:48.499Z,24.4
2018-07-20T02:57:53.945Z,24.4
2018-07-20T02:58:59.103Z,24.4
2018-07-20T03:00:04.301Z,24.4
2018-07-20T03:01:10.141Z,24.4
2018-07-20T03:02:15.043Z,24.4
2018-07-20T03:03:19.958Z,24.4
2018-07-20T03:04:25.899Z,24.4
2018-07-20T03:05:31.357Z,24.4
2018-07-20T03:06:36.821Z,24.4
2018-07-20T03:07:41.968Z,24.4
2018-07-20T03:08:47.110Z,24.4
2018-07-20T03:09:52.719Z,24.4
2018-07-20T03:10:57.604Z,24.4
2018-07-20T03:12:02.465Z,24.4
2018-07-20T03:13:07.592Z,24.4
2018-07-20T03:14:12.749Z,24.4
2018-07-20T03:15:17.889Z,24.4
2018-07-20T03:16:23.603Z,24.4
2018-07-20T03:17:28.472Z,24.4
2018-07-20T03:18:33.596Z,24.4
2018-07-20T03:19:38.787Z,24.4
2018-07-20T03:20:44.002Z,24.4
2018-07-20T03:21:49.121Z,24.4
2018-07-20T03:22:54.552Z,24.4
2018-07-20T03:24:00.064Z,24.4
2018-07-20T03:25:05.562Z,24.4
2018-07-20T03:26:10.724Z,24.4
2018-07-20T03:27:16.153Z,24.4
2018-07-20T03:28:21.601Z,24.4
2018-07-20T03:29:26.237Z,24.4
2018-07-20T03:30:32.068Z,24.4
2018-07-20T03:31:36.997Z,24.4
2018-07-20T03:32:41.636Z,24.4
2018-07-20T03:33:48.096Z,24.4
2018-07-20T03:34:53.245Z,24.4
2018-07-20T03:35:58.458Z,24.4
2018-07-20T03:37:03.784Z,24.4
2018-07-20T03:38:09.235Z,24.4
2018-07-20T03:39:14.377Z,24.4
2018-07-20T03:40:20.155Z,24.4
2018-07-20T03:41:25.364Z,24.4
2018-07-20T03:42:31.244Z,24.3
2018-07-20T03:43:36.687Z,24.4
2018-07-20T03:44:41.284Z,24.3
2018-07-20T03:45:46.837Z,24.3
2018-07-20T03:46:51.986Z,24.4
2018-07-20T03:47:57.352Z,24.3
2018-07-20T03:49:03.044Z,24.3
2018-07-20T03:50:08.061Z,24.3
2018-07-20T03:51:12.956Z,24.3
2018-07-20T03:52:18.958Z,24.3
2018-07-20T03:53:24.202Z,24.3
2018-07-20T03:54:29.763Z,24.3
2018-07-20T03:55:34.942Z,24.3
2018-07-20T03:56:40.369Z,24.3
2018-07-20T03:57:45.531Z,24.3
2018-07-20T03:58:50.674Z,24.3
2018-07-20T03:59:55.554Z,24.3
2018-07-20T04:01:01.440Z,24.3
2018-07-20T04:02:06.867Z,24.3
2018-07-20T04:03:12.324Z,24.2
2018-07-20T04:04:18.177Z,24.2
2018-07-20T04:05:23.379Z,24.1
2018-07-20T04:06:29.310Z,24
2018-07-20T04:07:34.171Z,24
2018-07-20T04:08:39.389Z,23.9
2018-07-20T04:09:45.168Z,23.9
2018-07-20T04:10:50.665Z,23.9
2018-07-20T04:11:55.875Z,23.9
2018-07-20T04:13:01.311Z,23.9
2018-07-20T04:14:05.620Z,23.8
2018-07-20T04:15:09.917Z,23.8
2018-07-20T04:16:15.343Z,23.8
2018-07-20T04:17:20.547Z,23.8
2018-07-20T04:18:26.451Z,23.7
2018-07-20T04:19:31.926Z,23.7
2018-07-20T04:20:36.880Z,23.6
2018-07-20T04:21:42.590Z,23.6
2018-07-20T04:22:47.163Z,23.6
2018-07-20T04:23:52.657Z,23.6
2018-07-20T04:24:58.490Z,23.6
2018-07-20T04:26:03.641Z,23.5
2018-07-20T04:27:08.840Z,23.5
2018-07-20T04:28:14.531Z,23.5
2018-07-20T04:29:19.683Z,23.5
2018-07-20T04:31:45.059Z,23.4
2018-07-20T04:32:50.297Z,23.4
2018-07-20T04:33:55.756Z,23.3
2018-07-20T04:35:00.892Z,23.3
2018-07-20T04:36:05.757Z,23.3
2018-07-20T04:37:10.930Z,23.3
2018-07-20T04:38:16.071Z,23.3
2018-07-20T04:39:21.263Z,23.2
2018-07-20T04:40:27.262Z,23.2
2018-07-20T04:41:31.831Z,23.2
2018-07-20T04:42:37.517Z,23.2
2018-07-20T04:43:42.953Z,23.1
2018-07-20T04:44:48.200Z,23.1
2018-07-20T04:45:53.903Z,23.1
2018-07-20T04:46:59.389Z,23.1
2018-07-20T04:48:03.682Z,23
2018-07-20T04:49:09.088Z,23
2018-07-20T04:50:14.226Z,23
2018-07-20T04:51:19.675Z,23
2018-07-20T04:52:25.326Z,23
2018-07-20T04:53:30.483Z,23
2018-07-20T04:54:36.162Z,23
2018-07-20T04:55:41.408Z,23
2018-07-20T04:56:46.833Z,22.9
2018-07-20T04:57:51.668Z,22.9
2018-07-20T04:58:56.625Z,22.9
2018-07-20T05:00:01.271Z,22.9
2018-07-20T05:01:06.730Z,22.9
2018-07-20T05:02:11.582Z,22.9
2018-07-20T05:03:17.036Z,22.9
2018-07-20T05:04:22.770Z,22.8
2018-07-20T05:05:28.020Z,22.9
2018-07-20T05:06:33.811Z,22.8
2018-07-20T05:07:38.964Z,22.8
2018-07-20T05:08:44.149Z,22.8
2018-07-20T05:09:49.552Z,22.8
2018-07-20T05:10:54.988Z,22.7
2018-07-20T05:12:00.145Z,22.7
2018-07-20T05:13:04.990Z,22.7
2018-07-20T05:14:09.922Z,22.7
2018-07-20T05:15:15.349Z,22.7
2018-07-20T05:16:21.102Z,22.7
2018-07-20T05:17:25.508Z,22.7
2018-07-20T05:18:30.633Z,22.7
2018-07-20T05:19:36.144Z,22.7
2018-07-20T05:20:41.653Z,22.7
2018-07-20T05:21:47.354Z,22.7
2018-07-20T05:22:52.813Z,22.6
2018-07-20T05:23:58.024Z,22.6
2018-07-20T05:25:03.883Z,22.6
2018-07-20T05:26:09.064Z,22.6
2018-07-20T05:27:13.965Z,22.6
2018-07-20T05:28:18.504Z,22.6
2018-07-20T05:29:24.002Z,22.6
2018-07-20T05:30:29.090Z,22.6
2018-07-20T05:31:34.233Z,22.5
2018-07-20T05:32:39.631Z,22.5
2018-07-20T05:33:46.173Z,22.5
2018-07-20T05:34:51.325Z,22.5
2018-07-20T05:35:56.803Z,22.5
2018-07-20T05:37:02.051Z,22.5
2018-07-20T05:38:07.500Z,22.5
2018-07-20T05:39:13.000Z,22.5
2018-07-20T05:40:18.729Z,22.5
2018-07-20T05:41:23.867Z,22.5
2018-07-20T05:42:29.221Z,22.5
2018-07-20T05:43:34.651Z,22.5
2018-07-20T05:44:40.129Z,22.5
2018-07-20T05:45:45.850Z,22.5
2018-07-20T05:46:51.297Z,22.5
2018-07-20T05:47:56.162Z,22.4
2018-07-20T05:49:01.285Z,22.4
2018-07-20T05:50:05.637Z,22.4
2018-07-20T05:51:11.072Z,22.4
2018-07-20T05:52:16.656Z,22.4
2018-07-20T05:53:22.145Z,22.4
2018-07-20T05:54:28.017Z,22.4
2018-07-20T05:55:32.884Z,22.4
2018-07-20T05:56:38.024Z,22.4
2018-07-20T05:57:43.811Z,22.4
2018-07-20T05:58:48.731Z,22.3
2018-07-20T05:59:54.246Z,22.3
2018-07-20T06:00:59.365Z,22.3
2018-07-20T06:02:04.562Z,22.3
2018-07-20T06:03:09.499Z,22.3
2018-07-20T06:04:14.334Z,22.3
2018-07-20T06:05:19.816Z,22.3
2018-07-20T06:06:25.800Z,22.3
2018-07-20T06:07:30.717Z,22.3
2018-07-20T06:08:36.152Z,22.3
2018-07-20T06:09:41.870Z,22.3
2018-07-20T06:10:46.763Z,22.3
2018-07-20T06:11:51.915Z,22.2
2018-07-20T06:12:57.359Z,22.2
2018-07-20T06:14:02.313Z,22.2
2018-07-20T06:15:07.690Z,22.2
2018-07-20T06:16:13.481Z,22.2
2018-07-20T06:17:18.337Z,22.2
2018-07-20T06:18:23.204Z,22.2
2018-07-20T06:19:43.404Z,22.2
2018-07-20T06:20:48.549Z,22.2
2018-07-20T06:21:54.578Z,22.2
2018-07-20T06:22:59.238Z,22.2
2018-07-20T06:24:04.478Z,22.2
2018-07-20T06:25:09.216Z,22.2
2018-07-20T06:26:14.668Z,22.2
2018-07-20T06:27:20.120Z,22.1
2018-07-20T06:28:40.511Z,22.1
2018-07-20T06:29:45.649Z,22.2
2018-07-20T06:30:50.009Z,22.1
2018-07-20T06:31:55.478Z,22.1
2018-07-20T06:33:00.681Z,22.1
2018-07-20T06:34:06.364Z,22.1
2018-07-20T06:35:11.380Z,22.1
2018-07-20T06:36:16.579Z,22.1
2018-07-20T06:37:22.294Z,22.1
2018-07-20T06:38:27.561Z,22.1
2018-07-20T06:39:32.536Z,22.1
2018-07-20T06:40:37.978Z,22.1
2018-07-20T06:41:43.080Z,22.1
2018-07-20T06:42:48.222Z,22.1
2018-07-20T06:43:53.383Z,22.1
2018-07-20T06:44:58.919Z,22.1
2018-07-20T06:46:04.188Z,22.1
2018-07-20T06:47:08.211Z,22.1
2018-07-20T06:48:13.360Z,22
2018-07-20T06:49:18.818Z,22
2018-07-20T06:50:23.904Z,22
2018-07-20T06:51:29.650Z,22
2018-07-20T06:52:34.865Z,22
2018-07-20T06:53:40.228Z,22
2018-07-20T06:54:46.078Z,22
2018-07-20T06:55:50.985Z,22
2018-07-20T06:56:56.504Z,22
2018-07-20T06:58:02.310Z,22
2018-07-20T06:59:06.906Z,22
2018-07-20T07:00:12.126Z,22
2018-07-20T07:01:17.576Z,22
2018-07-20T07:02:23.017Z,21.9
2018-07-20T07:03:28.775Z,22
2018-07-20T07:04:34.267Z,22
2018-07-20T07:05:39.425Z,22
2018-07-20T07:06:44.823Z,22
2018-07-20T07:07:50.250Z,22
2018-07-20T07:08:55.294Z,21.9
2018-07-20T07:10:01.071Z,21.9
2018-07-20T07:11:05.682Z,21.9
2018-07-20T07:12:10.853Z,21.9
2018-07-20T07:13:16.065Z,21.9
2018-07-20T07:14:20.918Z,21.9
2018-07-20T07:15:26.861Z,21.9
2018-07-20T07:16:32.378Z,21.9
2018-07-20T07:17:37.027Z,21.9
2018-07-20T07:18:42.533Z,21.9
2018-07-20T07:19:47.422Z,21.9
2018-07-20T07:20:52.848Z,21.9
2018-07-20T07:21:58.404Z,21.9
2018-07-20T07:23:03.569Z,21.9
2018-07-20T07:24:08.160Z,21.9
2018-07-20T07:25:13.869Z,21.9
2018-07-20T07:26:19.036Z,21.9
2018-07-20T07:27:23.899Z,21.9
2018-07-20T07:28:29.794Z,21.9
2018-07-20T07:29:34.120Z,21.9
2018-07-20T07:30:39.795Z,21.9
2018-07-20T07:31:45.323Z,21.9
2018-07-20T07:32:49.649Z,21.9
2018-07-20T07:33:55.251Z,21.8
2018-07-20T07:35:00.410Z,21.9
2018-07-20T07:36:04.720Z,21.9
2018-07-20T07:37:09.306Z,21.8
2018-07-20T07:38:14.493Z,21.8
2018-07-20T07:39:19.485Z,21.8
2018-07-20T07:40:25.223Z,21.8
2018-07-20T07:41:30.729Z,21.8
2018-07-20T07:42:36.301Z,21.8
2018-07-20T07:43:41.204Z,21.8
2018-07-20T07:44:46.631Z,21.8
2018-07-20T07:45:52.164Z,21.8
2018-07-20T07:46:57.401Z,21.8
2018-07-20T07:48:02.571Z,21.8
2018-07-20T07:49:08.123Z,21.8
2018-07-20T07:50:13.036Z,21.8
2018-07-20T07:51:18.243Z,21.8
2018-07-20T07:52:23.769Z,21.8
2018-07-20T07:53:28.647Z,21.8
2018-07-20T07:54:34.492Z,21.8
2018-07-20T07:55:39.935Z,21.8
2018-07-20T07:56:45.451Z,21.8
2018-07-20T07:57:50.115Z,21.8
2018-07-20T07:58:55.801Z,21.8
2018-07-20T08:00:00.970Z,21.8
2018-07-20T08:01:06.178Z,21.8
2018-07-20T08:02:11.322Z,21.8
2018-07-20T08:03:16.757Z,21.8
2018-07-20T08:04:22.152Z,21.8
2018-07-20T08:05:27.305Z,21.8
2018-07-20T08:06:33.098Z,21.8
2018-07-20T08:07:38.290Z,21.8
2018-07-20T08:08:43.717Z,21.8
2018-07-20T08:09:48.676Z,21.8
2018-07-20T08:10:55.086Z,21.8
2018-07-20T08:12:00.243Z,21.8
2018-07-20T08:13:05.090Z,21.7
2018-07-20T08:14:10.800Z,21.8
2018-07-20T08:15:16.079Z,21.7
2018-07-20T08:16:21.757Z,21.7
2018-07-20T08:17:27.263Z,21.7
2018-07-20T08:18:33.040Z,21.7
2018-07-20T08:19:38.472Z,21.7
2018-07-20T08:20:43.636Z,21.7
2018-07-20T08:21:49.353Z,21.7
2018-07-20T08:22:54.443Z,21.7
2018-07-20T08:24:00.229Z,21.7
2018-07-20T08:25:04.918Z,21.7
2018-07-20T08:26:08.948Z,21.7
2018-07-20T08:27:13.861Z,21.7
2018-07-20T08:28:19.708Z,21.7
2018-07-20T08:29:25.405Z,21.7
2018-07-20T08:30:30.800Z,21.7
2018-07-20T08:31:35.969Z,21.7
2018-07-20T08:32:41.106Z,21.7
2018-07-20T08:33:46.072Z,21.7
2018-07-20T08:34:51.502Z,21.7
2018-07-20T08:35:56.929Z,21.7
2018-07-20T08:37:02.408Z,21.7
2018-07-20T08:38:07.548Z,21.7
2018-07-20T08:39:12.700Z,21.7
2018-07-20T08:40:18.380Z,21.7
2018-07-20T08:41:23.016Z,21.7
2018-07-20T08:42:28.945Z,21.7
2018-07-20T08:43:34.292Z,21.7
2018-07-20T08:44:39.762Z,21.7
2018-07-20T08:45:45.695Z,21.7
2018-07-20T08:46:51.135Z,21.7
2018-07-20T08:47:56.793Z,21.7
2018-07-20T08:49:02.166Z,21.7
2018-07-20T08:50:07.372Z,21.7
2018-07-20T08:51:12.595Z,21.7
2018-07-20T08:52:17.995Z,21.7
2018-07-20T08:53:23.203Z,21.7
2018-07-20T08:54:29.091Z,21.7
2018-07-20T08:55:34.045Z,21.8
2018-07-20T08:56:39.211Z,21.8
2018-07-20T08:57:44.686Z,21.8
2018-07-20T08:58:49.560Z,21.8
2018-07-20T08:59:55.398Z,21.8
2018-07-20T09:01:01.368Z,21.8
2018-07-20T09:02:06.599Z,21.9
2018-07-20T09:03:12.056Z,21.9
2018-07-20T09:04:17.548Z,21.9
2018-07-20T09:05:22.193Z,21.9
2018-07-20T09:06:27.767Z,21.9
2018-07-20T09:07:32.953Z,21.9
2018-07-20T09:08:38.383Z,21.9
2018-07-20T09:09:44.028Z,22
2018-07-20T09:10:48.954Z,22
2018-07-20T09:11:54.387Z,22
2018-07-20T09:13:00.275Z,22
2018-07-20T09:14:05.202Z,22
2018-07-20T09:15:10.631Z,22.1
2018-07-20T09:16:16.450Z,22.1
2018-07-20T09:17:21.954Z,22.1
2018-07-20T09:18:27.121Z,22.1
2018-07-20T09:19:31.983Z,22.1
2018-07-20T09:20:37.503Z,22.1
2018-07-20T09:21:43.720Z,22.1
2018-07-20T09:22:48.295Z,22.2
2018-07-20T09:23:53.777Z,22.2
2018-07-20T09:24:59.172Z,22.2
2018-07-20T09:26:04.139Z,22.2
2018-07-20T09:27:09.356Z,22.3
2018-07-20T09:28:14.834Z,22.3
2018-07-20T09:29:20.574Z,22.3
2018-07-20T09:30:26.450Z,22.3
2018-07-20T09:31:31.599Z,22.3
2018-07-20T09:32:36.747Z,22.3
2018-07-20T09:33:42.196Z,22.4
2018-07-20T09:34:47.083Z,22.4
2018-07-20T09:35:52.549Z,22.4
2018-07-20T09:36:57.734Z,22.4
2018-07-20T09:38:02.396Z,22.4
2018-07-20T09:39:06.981Z,22.5
2018-07-20T09:40:12.384Z,22.5
2018-07-20T09:41:17.826Z,22.5
2018-07-20T09:42:22.966Z,22.5
2018-07-20T09:43:28.941Z,22.5
2018-07-20T09:44:34.572Z,22.5
2018-07-20T09:45:40.116Z,22.6
2018-07-20T09:46:45.611Z,22.6
2018-07-20T09:47:50.191Z,22.6
2018-07-20T09:48:55.452Z,22.6
2018-07-20T09:50:00.556Z,22.6
2018-07-20T09:51:05.271Z,22.6
2018-07-20T09:52:10.684Z,22.7
2018-07-20T09:53:15.911Z,22.7
2018-07-20T09:54:21.099Z,22.7
2018-07-20T09:55:40.302Z,22.7
2018-07-20T09:56:45.738Z,22.7
2018-07-20T09:57:50.418Z,22.7
2018-07-20T09:58:55.914Z,22.7
2018-07-20T10:00:00.505Z,22.7
2018-07-20T10:01:05.902Z,22.7
2018-07-20T10:02:11.104Z,22.8
2018-07-20T10:03:16.531Z,22.8
2018-07-20T10:04:22.322Z,22.8
2018-07-20T10:05:26.936Z,22.8
2018-07-20T10:06:32.325Z,22.8
2018-07-20T10:07:37.775Z,22.8
2018-07-20T10:08:42.937Z,22.9
2018-07-20T10:09:48.069Z,22.9
2018-07-20T10:10:53.273Z,22.9
2018-07-20T10:11:58.424Z,22.9
2018-07-20T10:13:03.856Z,22.9
2018-07-20T10:14:08.791Z,22.9
2018-07-20T10:15:13.091Z,22.9
2018-07-20T10:16:18.868Z,22.9
2018-07-20T10:17:24.044Z,22.9
2018-07-20T10:18:29.588Z,23
2018-07-20T10:19:34.457Z,23
2018-07-20T10:20:39.634Z,23
2018-07-20T10:21:45.351Z,23
2018-07-20T10:22:50.503Z,23
2018-07-20T10:23:56.032Z,23
2018-07-20T10:25:01.456Z,23
2018-07-20T10:26:06.042Z,23
2018-07-20T10:27:11.188Z,23
2018-07-20T10:28:16.895Z,23
2018-07-20T10:29:22.008Z,23
2018-07-20T10:30:27.268Z,23
2018-07-20T10:31:32.447Z,23
2018-07-20T10:32:37.375Z,23
2018-07-20T10:33:42.782Z,23
2018-07-20T10:34:47.395Z,23
2018-07-20T10:35:52.039Z,23.1
2018-07-20T10:36:57.593Z,23.1
2018-07-20T10:38:03.092Z,23.1
2018-07-20T10:39:08.300Z,23.1
2018-07-20T10:40:13.147Z,23.1
2018-07-20T10:41:18.413Z,23.1
2018-07-20T10:42:23.404Z,23.1
2018-07-20T10:43:43.555Z,23.2
2018-07-20T10:44:48.993Z,23.2
2018-07-20T10:45:54.669Z,23.2
2018-07-20T10:46:59.918Z,23.2
2018-07-20T10:48:05.452Z,23.2
2018-07-20T10:49:10.689Z,23.2
2018-07-20T10:50:15.912Z,23.2
2018-07-20T10:51:21.067Z,23.2
2018-07-20T10:52:26.689Z,23.2
2018-07-20T10:53:32.146Z,23.3
2018-07-20T10:54:37.455Z,23.3
2018-07-20T10:55:42.901Z,23.3
2018-07-20T10:56:47.785Z,23.3
2018-07-20T10:57:53.533Z,23.3
2018-07-20T10:58:58.700Z,23.3
2018-07-20T11:00:03.854Z,23.3
2018-07-20T11:01:09.318Z,23.3
2018-07-20T11:02:14.264Z,23.3
2018-07-20T11:03:19.211Z,23.3
2018-07-20T11:04:24.618Z,23.3
2018-07-20T11:05:29.196Z,23.3
2018-07-20T11:06:34.905Z,23.3
2018-07-20T11:07:40.419Z,23.3
2018-07-20T11:08:45.847Z,23.3
2018-07-20T11:09:50.212Z,23.4
2018-07-20T11:10:55.366Z,23.4
2018-07-20T11:12:00.801Z,23.4
2018-07-20T11:13:05.891Z,23.4
2018-07-20T11:14:11.325Z,23.4
2018-07-20T11:15:16.534Z,23.4
2018-07-20T11:16:21.514Z,23.4
2018-07-20T11:17:26.953Z,23.4
2018-07-20T11:18:32.841Z,23.4
2018-07-20T11:19:38.001Z,23.4
2018-07-20T11:20:43.648Z,23.4
2018-07-20T11:21:49.629Z,23.5
2018-07-20T11:22:54.861Z,23.5
2018-07-20T11:24:00.035Z,23.5
2018-07-20T11:25:05.302Z,23.6
2018-07-20T11:26:09.912Z,23.6
2018-07-20T11:27:15.339Z,23.6
2018-07-20T11:28:21.176Z,23.6
2018-07-20T11:29:26.620Z,23.7
2018-07-20T11:30:32.340Z,23.7
2018-07-20T11:31:37.496Z,23.7
2018-07-20T11:32:42.840Z,23.7
2018-07-20T11:33:48.875Z,23.7
2018-07-20T11:34:54.312Z,23.7
2018-07-20T11:35:59.767Z,23.8
2018-07-20T11:37:05.005Z,23.8
2018-07-20T11:38:10.057Z,23.8
2018-07-20T11:39:15.274Z,23.8
2018-07-20T11:40:20.683Z,23.8
2018-07-20T11:41:26.157Z,23.8
2018-07-20T11:42:31.974Z,23.8
2018-07-20T11:43:37.390Z,23.8
2018-07-20T11:44:41.987Z,23.9
2018-07-20T11:45:47.678Z,23.9
2018-07-20T11:46:53.116Z,23.9
2018-07-20T11:47:58.575Z,24
2018-07-20T11:49:04.081Z,24
2018-07-20T11:50:09.004Z,24
2018-07-20T11:51:13.935Z,24.1
2018-07-20T11:52:19.106Z,24.1
2018-07-20T11:53:24.000Z,24.1
2018-07-20T11:54:29.266Z,24.1
2018-07-20T11:55:34.765Z,24.1
2018-07-20T11:56:39.905Z,24.1
2018-07-20T11:57:45.336Z,24.2
2018-07-20T11:58:50.820Z,24.2
2018-07-20T11:59:55.972Z,24.2
2018-07-20T12:01:01.404Z,24.2
2018-07-20T12:02:05.719Z,24.2
2018-07-20T12:03:10.875Z,24.2
2018-07-20T12:04:16.579Z,24.3
2018-07-20T12:05:22.032Z,24.3
2018-07-20T12:06:27.030Z,24.3
2018-07-20T12:07:32.134Z,24.3
2018-07-20T12:08:37.274Z,24.3
2018-07-20T12:09:43.051Z,24.3
2018-07-20T12:10:47.633Z,24.3
2018-07-20T12:11:52.792Z,24.4
2018-07-20T12:12:58.262Z,24.4
2018-07-20T12:14:03.421Z,24.4
2018-07-20T12:15:08.582Z,24.4
2018-07-20T12:16:13.788Z,24.4
2018-07-20T12:17:19.025Z,24.4
2018-07-20T12:18:24.517Z,24.5
2018-07-20T12:19:44.599Z,24.5
2018-07-20T12:20:49.474Z,24.5
2018-07-20T12:21:54.437Z,24.5
2018-07-20T12:22:59.065Z,24.5
2018-07-20T12:24:04.203Z,24.6
2018-07-20T12:25:09.328Z,24.5
2018-07-20T12:26:14.251Z,24.5
2018-07-20T12:27:19.682Z,24.5
2018-07-20T12:28:25.465Z,24.6
2018-07-20T12:29:30.044Z,24.6
2018-07-20T12:30:35.521Z,24.6
2018-07-20T12:31:40.479Z,24.6
2018-07-20T12:32:45.910Z,24.6
2018-07-20T12:33:51.244Z,24.6
2018-07-20T12:34:56.488Z,24.6
2018-07-20T12:36:01.642Z,24.6
2018-07-20T12:37:07.299Z,24.6
2018-07-20T12:38:11.881Z,24.6
2018-07-20T12:39:17.088Z,24.7
2018-07-20T12:40:22.957Z,24.7
2018-07-20T12:41:27.830Z,24.7
2018-07-20T12:42:33.448Z,24.7
2018-07-20T12:43:38.761Z,24.7
2018-07-20T12:44:43.914Z,24.7
2018-07-20T12:45:49.611Z,24.7
2018-07-20T12:46:55.145Z,24.7
2018-07-20T12:48:00.011Z,24.7
2018-07-20T12:49:04.790Z,24.8
2018-07-20T12:50:09.925Z,24.8
2018-07-20T12:51:15.955Z,24.8
2018-07-20T12:52:20.931Z,24.8
2018-07-20T12:53:25.846Z,24.8
2018-07-20T12:54:31.004Z,24.8
2018-07-20T12:55:35.986Z,24.8
2018-07-20T12:56:41.460Z,24.8
2018-07-20T12:57:47.207Z,24.8
2018-07-20T12:58:52.701Z,24.8
2018-07-20T12:59:58.221Z,24.8
2018-07-20T13:01:03.104Z,24.8
2018-07-20T13:02:07.519Z,24.9
2018-07-20T13:03:12.414Z,24.9
2018-07-20T13:04:18.265Z,24.9
2018-07-20T13:05:23.645Z,24.9
2018-07-20T13:06:29.517Z,24.9
2018-07-20T13:07:34.949Z,24.9
2018-07-20T13:08:40.489Z,24.9
2018-07-20T13:09:46.274Z,24.9
2018-07-20T13:10:51.513Z,24.9
2018-07-20T13:11:57.058Z,24.9
2018-07-20T13:13:03.554Z,24.9
2018-07-20T13:14:08.445Z,24.9
2018-07-20T13:15:13.898Z,24.9
2018-07-20T13:16:18.787Z,25
2018-07-20T13:17:24.001Z,24.9
2018-07-20T13:18:29.281Z,24.9
2018-07-20T13:19:34.715Z,24.9
2018-07-20T13:20:39.990Z,24.9
2018-07-20T13:21:45.115Z,24.9
2018-07-20T13:22:50.258Z,24.9
2018-07-20T13:23:55.967Z,24.9
2018-07-20T13:25:01.688Z,24.9
2018-07-20T13:26:07.252Z,24.9
2018-07-20T13:27:12.398Z,24.9
2018-07-20T13:28:17.509Z,24.9
2018-07-20T13:29:22.998Z,24.9
2018-07-20T13:30:28.538Z,25
2018-07-20T13:31:34.093Z,24.9
2018-07-20T13:32:39.267Z,25
2018-07-20T13:33:45.123Z,25
2018-07-20T13:34:49.783Z,25
2018-07-20T13:35:54.369Z,25
2018-07-20T13:36:59.888Z,25
2018-07-20T13:38:04.477Z,25
2018-07-20T13:39:09.068Z,25
2018-07-20T13:40:14.079Z,25
2018-07-20T13:41:18.989Z,25
2018-07-20T13:42:23.965Z,25
2018-07-20T13:43:29.692Z,25
2018-07-20T13:44:34.861Z,25
2018-07-20T13:45:40.020Z,25
2018-07-20T13:46:45.456Z,25
2018-07-20T13:47:50.975Z,25
2018-07-20T13:48:56.459Z,25
2018-07-20T13:50:01.335Z,25
2018-07-20T13:51:05.915Z,25
2018-07-20T13:52:10.856Z,25
2018-07-20T13:53:16.010Z,25
2018-07-20T13:54:20.900Z,25
2018-07-20T13:55:25.932Z,25
2018-07-20T13:56:31.373Z,25
2018-07-20T13:57:36.482Z,25
2018-07-20T13:58:41.631Z,25
2018-07-20T13:59:47.095Z,25
2018-07-20T14:00:52.258Z,25
2018-07-20T14:01:57.686Z,25
2018-07-20T14:03:02.889Z,25
2018-07-20T14:04:08.006Z,25
2018-07-20T14:05:13.446Z,25
2018-07-20T14:06:18.895Z,25
2018-07-20T14:07:23.732Z,25
2018-07-20T14:08:28.639Z,25.1
2018-07-20T14:09:34.212Z,25
2018-07-20T14:10:39.361Z,25
2018-07-20T14:11:44.276Z,25.1
2018-07-20T14:12:49.740Z,25
2018-07-20T14:13:55.171Z,25
2018-07-20T14:15:00.328Z,25
2018-07-20T14:16:04.645Z,25
2018-07-20T14:17:09.512Z,24.9
2018-07-20T14:18:14.961Z,24.9
2018-07-20T14:19:19.984Z,24.9
2018-07-20T14:20:25.433Z,24.8
2018-07-20T14:21:31.389Z,24.8
2018-07-20T14:22:36.558Z,24.8
2018-07-20T14:23:41.751Z,24.8
2018-07-20T14:24:47.848Z,24.8
2018-07-20T14:25:52.728Z,24.7
2018-07-20T14:26:58.165Z,24.7
2018-07-20T14:28:03.635Z,24.6
2018-07-20T14:29:08.276Z,24.6
2018-07-20T14:30:13.193Z,24.6
2018-07-20T14:31:18.590Z,24.6
2018-07-20T14:32:24.184Z,24.6
2018-07-20T14:33:29.587Z,24.5
2018-07-20T14:34:34.742Z,24.5
2018-07-20T14:35:39.961Z,24.5
2018-07-20T14:36:45.780Z,24.5
2018-07-20T14:37:50.635Z,24.5
2018-07-20T14:38:56.122Z,24.4